Aeroporto :
LOGIN :

Iscrizione | Disclaimer

   EN    FR    IT 

 










Sommario :    VFR   VFR Marginale   IFR   IFR Intensivo   IFR Molto Intensivo
Visibilità : 
Base nubi : 
>= 8 km
>= 3000ft
5 / 8 km
1000 / 3000 ft
1500m / 5 km
500 / 1000 ft
800 / 1500m
200 / 500 ft
< 800m
< 200 ft
Simboli :   Temporali  Nebbia  Neve Forte  Precipitazioni Forti  Vento > 20 kt
SIGMETs :   Varie  Temporali  Ghiacco  Turbolenza  Onda orograficha  Ceneri Vulcaniche






- Altitudine del aeroporto : 465 ft


ENFB - Statfjord B Platform

ULTIMO METAR :
  • 221250Z AUTO 11018KT 9999NDV BKN059/// 09/05 Q1009 W///S3

METARs OBSOLETI :
  • 221220Z AUTO 10020KT 9999NDV BKN059/// 09/05 Q1009 W///S3
  • 221150Z AUTO 10021KT 9999NDV BKN059/// BKN100/// 09/05 Q1009 W///S3
  • 221120Z AUTO 10021KT 9999NDV SCT058/// BKN100/// 09/04 Q1009 W///S3
  • 221050Z AUTO 11022KT 9999NDV BKN056/// 09/04 Q1010 W///S3
  • 221020Z AUTO 10022KT 9999NDV BKN057/// 09/04 Q1010 W///S3

TAF N/A



MetMap, La meteo Aeronautica in un colpo d'occhio ! - Copyright ORBIFLY Dicembre 2007 - Disclaimer

ORBIFLY MET'MAP TEAM :

Programmazione e sviluppo : Alexandra Zaïnal
Concezione e sviluppo : Baudouin d'Aumeries
Co-Programmazione e sviluppo : Marc-Olivier Méhu
Supporto tecnico e logistico : Manuel Goepfert
Aiuto per la traduzione : Arnaldo La Scala

Contatto : metmap@orbifly.com




FONTI E CREDITI :

   NOAA